sensor_id;sensor_type;location;lat;lon;timestamp;P1;P2;P0
60816;PMS5003;51921;51.518;-3.188;2024-01-15T00:00:28;11;10;
60816;PMS5003;51921;51.518;-3.188;2024-01-15T00:02:53;13;11;
60816;PMS5003;51921;51.518;-3.188;2024-01-15T00:05:19;8;8;
60816;PMS5003;51921;51.518;-3.188;2024-01-15T00:07:45;9;9;
60816;PMS5003;51921;51.518;-3.188;2024-01-15T00:10:10;7;7;
60816;PMS5003;51921;51.518;-3.188;2024-01-15T00:12:36;8;8;
60816;PMS5003;51921;51.518;-3.188;2024-01-15T00:15:02;7;7;
60816;PMS5003;51921;51.518;-3.188;2024-01-15T00:17:27;8;7;
60816;PMS5003;51921;51.518;-3.188;2024-01-15T00:19:53;11;10;
60816;PMS5003;51921;51.518;-3.188;2024-01-15T00:22:19;9;9;
60816;PMS5003;51921;51.518;-3.188;2024-01-15T00:24:44;10;10;
60816;PMS5003;51921;51.518;-3.188;2024-01-15T00:27:10;7;7;
60816;PMS5003;51921;51.518;-3.188;2024-01-15T00:29:36;9;9;
60816;PMS5003;51921;51.518;-3.188;2024-01-15T00:32:01;12;9;
60816;PMS5003;51921;51.518;-3.188;2024-01-15T00:34:27;8;7;
60816;PMS5003;51921;51.518;-3.188;2024-01-15T00:36:53;9;8;
60816;PMS5003;51921;51.518;-3.188;2024-01-15T00:39:18;7;7;
60816;PMS5003;51921;51.518;-3.188;2024-01-15T00:41:43;8;8;
60816;PMS5003;51921;51.518;-3.188;2024-01-15T00:44:09;7;7;
60816;PMS5003;51921;51.518;-3.188;2024-01-15T00:49:00;8;7;
60816;PMS5003;51921;51.518;-3.188;2024-01-15T00:51:26;7;7;
60816;PMS5003;51921;51.518;-3.188;2024-01-15T00:53:52;9;8;
60816;PMS5003;51921;51.518;-3.188;2024-01-15T00:56:17;5;4;
60816;PMS5003;51921;51.518;-3.188;2024-01-15T00:58:43;9;8;
60816;PMS5003;51921;51.518;-3.188;2024-01-15T01:01:08;7;7;
60816;PMS5003;51921;51.518;-3.188;2024-01-15T01:03:34;6;5;
60816;PMS5003;51921;51.518;-3.188;2024-01-15T01:05:59;7;6;
60816;PMS5003;51921;51.518;-3.188;2024-01-15T01:08:25;8;7;
60816;PMS5003;51921;51.518;-3.188;2024-01-15T01:10:51;8;7;
60816;PMS5003;51921;51.518;-3.188;2024-01-15T01:13:16;6;6;
60816;PMS5003;51921;51.518;-3.188;2024-01-15T01:15:42;7;6;
60816;PMS5003;51921;51.518;-3.188;2024-01-15T01:18:07;7;7;
60816;PMS5003;51921;51.518;-3.188;2024-01-15T01:20:33;6;6;
60816;PMS5003;51921;51.518;-3.188;2024-01-15T01:22:59;4;4;
60816;PMS5003;51921;51.518;-3.188;2024-01-15T01:25:24;8;7;
60816;PMS5003;51921;51.518;-3.188;2024-01-15T01:27:50;6;6;
60816;PMS5003;51921;51.518;-3.188;2024-01-15T01:30:16;10;9;
60816;PMS5003;51921;51.518;-3.188;2024-01-15T01:32:41;7;6;
60816;PMS5003;51921;51.518;-3.188;2024-01-15T01:35:07;8;7;
60816;PMS5003;51921;51.518;-3.188;2024-01-15T01:37:32;8;8;
60816;PMS5003;51921;51.518;-3.188;2024-01-15T01:39:58;7;7;
60816;PMS5003;51921;51.518;-3.188;2024-01-15T01:42:24;9;9;
60816;PMS5003;51921;51.518;-3.188;2024-01-15T01:44:49;9;9;
60816;PMS5003;51921;51.518;-3.188;2024-01-15T01:47:15;8;7;
60816;PMS5003;51921;51.518;-3.188;2024-01-15T01:49:41;9;8;
60816;PMS5003;51921;51.518;-3.188;2024-01-15T01:52:06;9;8;
60816;PMS5003;51921;51.518;-3.188;2024-01-15T01:54:32;8;7;
60816;PMS5003;51921;51.518;-3.188;2024-01-15T01:56:58;10;10;
60816;PMS5003;51921;51.518;-3.188;2024-01-15T01:59:23;8;8;
60816;PMS5003;51921;51.518;-3.188;2024-01-15T02:01:49;10;9;
60816;PMS5003;51921;51.518;-3.188;2024-01-15T02:04:14;11;10;
60816;PMS5003;51921;51.518;-3.188;2024-01-15T02:06:40;12;12;
60816;PMS5003;51921;51.518;-3.188;2024-01-15T02:09:06;8;8;
60816;PMS5003;51921;51.518;-3.188;2024-01-15T02:11:31;11;11;
60816;PMS5003;51921;51.518;-3.188;2024-01-15T02:13:57;11;11;
60816;PMS5003;51921;51.518;-3.188;2024-01-15T02:16:23;10;10;
60816;PMS5003;51921;51.518;-3.188;2024-01-15T02:18:48;9;9;
60816;PMS5003;51921;51.518;-3.188;2024-01-15T02:21:14;10;10;
60816;PMS5003;51921;51.518;-3.188;2024-01-15T02:23:40;11;11;
60816;PMS5003;51921;51.518;-3.188;2024-01-15T02:26:05;10;10;
60816;PMS5003;51921;51.518;-3.188;2024-01-15T02:28:31;10;10;
60816;PMS5003;51921;51.518;-3.188;2024-01-15T02:30:56;11;11;
60816;PMS5003;51921;51.518;-3.188;2024-01-15T02:33:22;11;11;
60816;PMS5003;51921;51.518;-3.188;2024-01-15T02:35:48;12;11;
60816;PMS5003;51921;51.518;-3.188;2024-01-15T02:38:13;10;10;
60816;PMS5003;51921;51.518;-3.188;2024-01-15T02:40:39;9;9;
60816;PMS5003;51921;51.518;-3.188;2024-01-15T02:43:04;12;10;
60816;PMS5003;51921;51.518;-3.188;2024-01-15T02:45:30;12;10;
60816;PMS5003;51921;51.518;-3.188;2024-01-15T02:47:56;10;10;
60816;PMS5003;51921;51.518;-3.188;2024-01-15T02:50:21;9;9;
60816;PMS5003;51921;51.518;-3.188;2024-01-15T02:52:47;9;9;
60816;PMS5003;51921;51.518;-3.188;2024-01-15T02:55:13;9;9;
60816;PMS5003;51921;51.518;-3.188;2024-01-15T02:57:38;10;9;
60816;PMS5003;51921;51.518;-3.188;2024-01-15T03:00:05;10;10;
60816;PMS5003;51921;51.518;-3.188;2024-01-15T03:02:29;9;9;
60816;PMS5003;51921;51.518;-3.188;2024-01-15T03:04:55;13;12;
60816;PMS5003;51921;51.518;-3.188;2024-01-15T03:07:20;10;10;
60816;PMS5003;51921;51.518;-3.188;2024-01-15T03:09:46;9;9;
60816;PMS5003;51921;51.518;-3.188;2024-01-15T03:12:12;10;9;
60816;PMS5003;51921;51.518;-3.188;2024-01-15T03:14:38;9;9;
60816;PMS5003;51921;51.518;-3.188;2024-01-15T03:17:03;12;12;
60816;PMS5003;51921;51.518;-3.188;2024-01-15T03:19:29;10;9;
60816;PMS5003;51921;51.518;-3.188;2024-01-15T03:21:55;8;8;
60816;PMS5003;51921;51.518;-3.188;2024-01-15T03:24:20;7;6;
60816;PMS5003;51921;51.518;-3.188;2024-01-15T03:26:46;8;7;
60816;PMS5003;51921;51.518;-3.188;2024-01-15T03:29:12;7;7;
60816;PMS5003;51921;51.518;-3.188;2024-01-15T03:31:37;7;6;
60816;PMS5003;51921;51.518;-3.188;2024-01-15T03:34:03;5;5;
60816;PMS5003;51921;51.518;-3.188;2024-01-15T03:36:29;8;8;
60816;PMS5003;51921;51.518;-3.188;2024-01-15T03:38:54;7;7;
60816;PMS5003;51921;51.518;-3.188;2024-01-15T03:41:20;6;6;
60816;PMS5003;51921;51.518;-3.188;2024-01-15T03:43:45;6;6;
60816;PMS5003;51921;51.518;-3.188;2024-01-15T03:46:11;7;6;
60816;PMS5003;51921;51.518;-3.188;2024-01-15T03:48:37;7;7;
60816;PMS5003;51921;51.518;-3.188;2024-01-15T03:51:03;7;7;
60816;PMS5003;51921;51.518;-3.188;2024-01-15T03:53:28;7;6;
60816;PMS5003;51921;51.518;-3.188;2024-01-15T03:55:54;8;6;
60816;PMS5003;51921;51.518;-3.188;2024-01-15T03:58:19;6;6;
60816;PMS5003;51921;51.518;-3.188;2024-01-15T04:00:45;6;6;
60816;PMS5003;51921;51.518;-3.188;2024-01-15T04:03:11;8;8;
60816;PMS5003;51921;51.518;-3.188;2024-01-15T04:05:36;8;7;
60816;PMS5003;51921;51.518;-3.188;2024-01-15T04:08:02;7;7;
60816;PMS5003;51921;51.518;-3.188;2024-01-15T04:10:27;9;8;
60816;PMS5003;51921;51.518;-3.188;2024-01-15T04:12:53;7;7;
60816;PMS5003;51921;51.518;-3.188;2024-01-15T04:15:19;7;6;
60816;PMS5003;51921;51.518;-3.188;2024-01-15T04:17:44;9;8;
60816;PMS5003;51921;51.518;-3.188;2024-01-15T04:20:10;9;9;
60816;PMS5003;51921;51.518;-3.188;2024-01-15T04:22:35;7;7;
60816;PMS5003;51921;51.518;-3.188;2024-01-15T04:25:01;9;9;
60816;PMS5003;51921;51.518;-3.188;2024-01-15T04:27:27;7;7;
60816;PMS5003;51921;51.518;-3.188;2024-01-15T04:29:53;8;7;
60816;PMS5003;51921;51.518;-3.188;2024-01-15T04:32:18;8;8;
60816;PMS5003;51921;51.518;-3.188;2024-01-15T04:34:44;9;8;
60816;PMS5003;51921;51.518;-3.188;2024-01-15T04:37:09;8;7;
60816;PMS5003;51921;51.518;-3.188;2024-01-15T04:39:35;9;8;
60816;PMS5003;51921;51.518;-3.188;2024-01-15T04:42:01;8;7;
60816;PMS5003;51921;51.518;-3.188;2024-01-15T04:44:26;7;7;
60816;PMS5003;51921;51.518;-3.188;2024-01-15T04:46:52;7;6;
60816;PMS5003;51921;51.518;-3.188;2024-01-15T04:49:18;10;9;
60816;PMS5003;51921;51.518;-3.188;2024-01-15T04:51:43;8;8;
60816;PMS5003;51921;51.518;-3.188;2024-01-15T04:54:09;8;7;
60816;PMS5003;51921;51.518;-3.188;2024-01-15T04:56:35;7;7;
60816;PMS5003;51921;51.518;-3.188;2024-01-15T04:59:00;10;9;
60816;PMS5003;51921;51.518;-3.188;2024-01-15T05:01:30;10;9;
60816;PMS5003;51921;51.518;-3.188;2024-01-15T05:03:52;8;8;
60816;PMS5003;51921;51.518;-3.188;2024-01-15T05:06:19;11;10;
60816;PMS5003;51921;51.518;-3.188;2024-01-15T05:08:43;9;9;
60816;PMS5003;51921;51.518;-3.188;2024-01-15T05:11:09;10;8;
60816;PMS5003;51921;51.518;-3.188;2024-01-15T05:13:34;8;8;
60816;PMS5003;51921;51.518;-3.188;2024-01-15T05:16:00;9;9;
60816;PMS5003;51921;51.518;-3.188;2024-01-15T05:18:26;10;9;
60816;PMS5003;51921;51.518;-3.188;2024-01-15T05:20:51;8;8;
60816;PMS5003;51921;51.518;-3.188;2024-01-15T05:23:17;9;9;
60816;PMS5003;51921;51.518;-3.188;2024-01-15T05:25:48;9;9;
60816;PMS5003;51921;51.518;-3.188;2024-01-15T05:28:08;9;9;
60816;PMS5003;51921;51.518;-3.188;2024-01-15T05:30:34;10;9;
60816;PMS5003;51921;51.518;-3.188;2024-01-15T05:33:00;9;9;
60816;PMS5003;51921;51.518;-3.188;2024-01-15T05:35:25;11;9;
60816;PMS5003;51921;51.518;-3.188;2024-01-15T05:37:51;10;10;
60816;PMS5003;51921;51.518;-3.188;2024-01-15T05:40:17;7;7;
60816;PMS5003;51921;51.518;-3.188;2024-01-15T05:42:42;9;9;
60816;PMS5003;51921;51.518;-3.188;2024-01-15T05:45:08;10;9;
60816;PMS5003;51921;51.518;-3.188;2024-01-15T05:47:34;10;8;
60816;PMS5003;51921;51.518;-3.188;2024-01-15T05:50:00;10;9;
60816;PMS5003;51921;51.518;-3.188;2024-01-15T05:52:25;8;8;
60816;PMS5003;51921;51.518;-3.188;2024-01-15T05:54:51;8;8;
60816;PMS5003;51921;51.518;-3.188;2024-01-15T05:57:16;9;8;
60816;PMS5003;51921;51.518;-3.188;2024-01-15T05:59:42;11;10;
60816;PMS5003;51921;51.518;-3.188;2024-01-15T06:02:08;8;8;
60816;PMS5003;51921;51.518;-3.188;2024-01-15T06:04:33;10;9;
60816;PMS5003;51921;51.518;-3.188;2024-01-15T06:06:59;9;8;
60816;PMS5003;51921;51.518;-3.188;2024-01-15T06:09:25;8;8;
60816;PMS5003;51921;51.518;-3.188;2024-01-15T06:11:51;10;9;
60816;PMS5003;51921;51.518;-3.188;2024-01-15T06:14:16;8;7;
60816;PMS5003;51921;51.518;-3.188;2024-01-15T06:16:42;5;5;
60816;PMS5003;51921;51.518;-3.188;2024-01-15T06:19:08;8;6;
60816;PMS5003;51921;51.518;-3.188;2024-01-15T06:21:33;5;5;
60816;PMS5003;51921;51.518;-3.188;2024-01-15T06:23:59;7;5;
60816;PMS5003;51921;51.518;-3.188;2024-01-15T06:26:25;4;4;
60816;PMS5003;51921;51.518;-3.188;2024-01-15T06:28:50;7;7;
60816;PMS5003;51921;51.518;-3.188;2024-01-15T06:31:16;6;5;
60816;PMS5003;51921;51.518;-3.188;2024-01-15T06:33:42;5;5;
60816;PMS5003;51921;51.518;-3.188;2024-01-15T06:36:08;6;5;
60816;PMS5003;51921;51.518;-3.188;2024-01-15T06:38:33;6;6;
60816;PMS5003;51921;51.518;-3.188;2024-01-15T06:40:59;5;5;
60816;PMS5003;51921;51.518;-3.188;2024-01-15T06:43:25;5;5;
60816;PMS5003;51921;51.518;-3.188;2024-01-15T06:45:50;6;6;
60816;PMS5003;51921;51.518;-3.188;2024-01-15T06:48:16;4;4;
60816;PMS5003;51921;51.518;-3.188;2024-01-15T06:50:42;7;6;
60816;PMS5003;51921;51.518;-3.188;2024-01-15T06:53:07;4;4;
60816;PMS5003;51921;51.518;-3.188;2024-01-15T06:55:33;5;5;
60816;PMS5003;51921;51.518;-3.188;2024-01-15T06:57:59;5;5;
60816;PMS5003;51921;51.518;-3.188;2024-01-15T07:00:25;6;6;
60816;PMS5003;51921;51.518;-3.188;2024-01-15T07:02:50;9;9;
60816;PMS5003;51921;51.518;-3.188;2024-01-15T07:05:16;4;4;
60816;PMS5003;51921;51.518;-3.188;2024-01-15T07:07:42;7;6;
60816;PMS5003;51921;51.518;-3.188;2024-01-15T07:10:07;7;7;
60816;PMS5003;51921;51.518;-3.188;2024-01-15T07:12:33;8;8;
60816;PMS5003;51921;51.518;-3.188;2024-01-15T07:14:59;8;8;
60816;PMS5003;51921;51.518;-3.188;2024-01-15T07:17:24;6;6;
60816;PMS5003;51921;51.518;-3.188;2024-01-15T07:19:50;6;5;
60816;PMS5003;51921;51.518;-3.188;2024-01-15T07:22:15;6;5;
60816;PMS5003;51921;51.518;-3.188;2024-01-15T07:24:41;7;7;
60816;PMS5003;51921;51.518;-3.188;2024-01-15T07:27:07;4;4;
60816;PMS5003;51921;51.518;-3.188;2024-01-15T07:29:33;5;5;
60816;PMS5003;51921;51.518;-3.188;2024-01-15T07:31:58;6;6;
60816;PMS5003;51921;51.518;-3.188;2024-01-15T07:34:24;7;6;
60816;PMS5003;51921;51.518;-3.188;2024-01-15T07:36:50;7;6;
60816;PMS5003;51921;51.518;-3.188;2024-01-15T07:39:16;6;6;
60816;PMS5003;51921;51.518;-3.188;2024-01-15T07:41:41;9;8;
60816;PMS5003;51921;51.518;-3.188;2024-01-15T07:44:07;6;6;
60816;PMS5003;51921;51.518;-3.188;2024-01-15T07:46:32;5;5;
60816;PMS5003;51921;51.518;-3.188;2024-01-15T07:48:58;7;6;
60816;PMS5003;51921;51.518;-3.188;2024-01-15T07:51:24;7;7;
60816;PMS5003;51921;51.518;-3.188;2024-01-15T07:53:50;8;7;
60816;PMS5003;51921;51.518;-3.188;2024-01-15T07:56:15;7;6;
60816;PMS5003;51921;51.518;-3.188;2024-01-15T07:58:41;7;5;
60816;PMS5003;51921;51.518;-3.188;2024-01-15T08:01:07;5;4;
60816;PMS5003;51921;51.518;-3.188;2024-01-15T08:03:33;7;6;
60816;PMS5003;51921;51.518;-3.188;2024-01-15T08:05:59;5;5;
60816;PMS5003;51921;51.518;-3.188;2024-01-15T08:08:24;4;4;
60816;PMS5003;51921;51.518;-3.188;2024-01-15T08:10:50;6;4;
60816;PMS5003;51921;51.518;-3.188;2024-01-15T08:13:15;10;7;
60816;PMS5003;51921;51.518;-3.188;2024-01-15T08:15:41;24;21;
60816;PMS5003;51921;51.518;-3.188;2024-01-15T08:18:06;41;38;
60816;PMS5003;51921;51.518;-3.188;2024-01-15T08:20:31;45;40;
60816;PMS5003;51921;51.518;-3.188;2024-01-15T08:22:56;19;18;
60816;PMS5003;51921;51.518;-3.188;2024-01-15T08:25:22;9;8;
60816;PMS5003;51921;51.518;-3.188;2024-01-15T08:27:47;8;7;
60816;PMS5003;51921;51.518;-3.188;2024-01-15T08:30:13;5;5;
60816;PMS5003;51921;51.518;-3.188;2024-01-15T08:32:39;5;5;
60816;PMS5003;51921;51.518;-3.188;2024-01-15T08:35:05;5;5;
60816;PMS5003;51921;51.518;-3.188;2024-01-15T08:37:30;7;6;
60816;PMS5003;51921;51.518;-3.188;2024-01-15T08:39:56;5;5;
60816;PMS5003;51921;51.518;-3.188;2024-01-15T08:42:22;3;3;
60816;PMS5003;51921;51.518;-3.188;2024-01-15T08:44:47;5;4;
60816;PMS5003;51921;51.518;-3.188;2024-01-15T08:47:13;10;10;
60816;PMS5003;51921;51.518;-3.188;2024-01-15T08:49:38;40;40;
60816;PMS5003;51921;51.518;-3.188;2024-01-15T08:52:04;10;9;
60816;PMS5003;51921;51.518;-3.188;2024-01-15T08:54:30;6;6;
60816;PMS5003;51921;51.518;-3.188;2024-01-15T08:56:56;8;8;
60816;PMS5003;51921;51.518;-3.188;2024-01-15T08:59:21;13;10;
60816;PMS5003;51921;51.518;-3.188;2024-01-15T09:01:47;14;13;
60816;PMS5003;51921;51.518;-3.188;2024-01-15T09:04:13;10;10;
60816;PMS5003;51921;51.518;-3.188;2024-01-15T09:06:39;6;6;
60816;PMS5003;51921;51.518;-3.188;2024-01-15T09:09:04;4;4;
60816;PMS5003;51921;51.518;-3.188;2024-01-15T09:11:30;4;4;
60816;PMS5003;51921;51.518;-3.188;2024-01-15T09:13:55;5;4;
60816;PMS5003;51921;51.518;-3.188;2024-01-15T09:16:21;7;6;
60816;PMS5003;51921;51.518;-3.188;2024-01-15T09:18:47;10;9;
60816;PMS5003;51921;51.518;-3.188;2024-01-15T09:21:13;9;8;
60816;PMS5003;51921;51.518;-3.188;2024-01-15T09:23:38;7;6;
60816;PMS5003;51921;51.518;-3.188;2024-01-15T09:26:04;6;5;
60816;PMS5003;51921;51.518;-3.188;2024-01-15T09:28:30;5;5;
60816;PMS5003;51921;51.518;-3.188;2024-01-15T09:30:56;4;3;
60816;PMS5003;51921;51.518;-3.188;2024-01-15T09:33:21;4;4;
60816;PMS5003;51921;51.518;-3.188;2024-01-15T09:35:47;4;4;
60816;PMS5003;51921;51.518;-3.188;2024-01-15T09:38:13;5;5;
60816;PMS5003;51921;51.518;-3.188;2024-01-15T09:40:38;5;5;
60816;PMS5003;51921;51.518;-3.188;2024-01-15T09:43:04;4;4;
60816;PMS5003;51921;51.518;-3.188;2024-01-15T09:45:30;4;4;
60816;PMS5003;51921;51.518;-3.188;2024-01-15T09:47:56;2;2;
60816;PMS5003;51921;51.518;-3.188;2024-01-15T09:50:21;2;1;
60816;PMS5003;51921;51.518;-3.188;2024-01-15T09:52:47;1;1;
60816;PMS5003;51921;51.518;-3.188;2024-01-15T09:55:13;3;2;
60816;PMS5003;51921;51.518;-3.188;2024-01-15T09:57:38;2;2;
60816;PMS5003;51921;51.518;-3.188;2024-01-15T10:00:04;2;1;
60816;PMS5003;51921;51.518;-3.188;2024-01-15T10:02:30;1;1;
60816;PMS5003;51921;51.518;-3.188;2024-01-15T10:04:55;1;1;
60816;PMS5003;51921;51.518;-3.188;2024-01-15T10:07:21;3;2;
60816;PMS5003;51921;51.518;-3.188;2024-01-15T10:09:47;1;1;
60816;PMS5003;51921;51.518;-3.188;2024-01-15T10:12:12;2;2;
60816;PMS5003;51921;51.518;-3.188;2024-01-15T10:14:39;2;1;
60816;PMS5003;51921;51.518;-3.188;2024-01-15T10:19:30;1;1;
60816;PMS5003;51921;51.518;-3.188;2024-01-15T10:21:55;4;1;
60816;PMS5003;51921;51.518;-3.188;2024-01-15T10:24:21;1;1;
60816;PMS5003;51921;51.518;-3.188;2024-01-15T10:26:47;0;0;
60816;PMS5003;51921;51.518;-3.188;2024-01-15T10:29:14;1;1;
60816;PMS5003;51921;51.518;-3.188;2024-01-15T10:31:38;1;1;
60816;PMS5003;51921;51.518;-3.188;2024-01-15T10:34:10;0;0;
60816;PMS5003;51921;51.518;-3.188;2024-01-15T10:36:29;0;0;
60816;PMS5003;51921;51.518;-3.188;2024-01-15T10:38:56;1;1;
60816;PMS5003;51921;51.518;-3.188;2024-01-15T10:41:20;1;0;
60816;PMS5003;51921;51.518;-3.188;2024-01-15T10:43:46;0;0;
60816;PMS5003;51921;51.518;-3.188;2024-01-15T10:46:12;1;1;
60816;PMS5003;51921;51.518;-3.188;2024-01-15T10:48:37;1;1;
60816;PMS5003;51921;51.518;-3.188;2024-01-15T10:51:03;1;1;
60816;PMS5003;51921;51.518;-3.188;2024-01-15T10:53:29;2;2;
60816;PMS5003;51921;51.518;-3.188;2024-01-15T10:55:54;1;1;
60816;PMS5003;51921;51.518;-3.188;2024-01-15T10:58:20;1;1;
60816;PMS5003;51921;51.518;-3.188;2024-01-15T11:00:46;1;1;
60816;PMS5003;51921;51.518;-3.188;2024-01-15T11:03:11;0;0;
60816;PMS5003;51921;51.518;-3.188;2024-01-15T11:05:37;16;15;
60816;PMS5003;51921;51.518;-3.188;2024-01-15T11:08:04;1;1;
60816;PMS5003;51921;51.518;-3.188;2024-01-15T11:12:54;0;0;
60816;PMS5003;51921;51.518;-3.188;2024-01-15T11:15:20;1;1;
60816;PMS5003;51921;51.518;-3.188;2024-01-15T11:20:11;1;0;
60816;PMS5003;51921;51.518;-3.188;2024-01-15T11:22:47;1;0;
60816;PMS5003;51921;51.518;-3.188;2024-01-15T11:25:03;0;0;
60816;PMS5003;51921;51.518;-3.188;2024-01-15T11:32:21;1;1;
60816;PMS5003;51921;51.518;-3.188;2024-01-15T11:34:51;1;0;
60816;PMS5003;51921;51.518;-3.188;2024-01-15T11:37:10;1;1;
60816;PMS5003;51921;51.518;-3.188;2024-01-15T11:39:40;0;0;
60816;PMS5003;51921;51.518;-3.188;2024-01-15T11:42:02;0;0;
60816;PMS5003;51921;51.518;-3.188;2024-01-15T11:44:27;2;2;
60816;PMS5003;51921;51.518;-3.188;2024-01-15T11:46:56;1;0;
60816;PMS5003;51921;51.518;-3.188;2024-01-15T11:49:22;1;0;
60816;PMS5003;51921;51.518;-3.188;2024-01-15T11:51:44;0;0;
60816;PMS5003;51921;51.518;-3.188;2024-01-15T11:54:10;1;0;
60816;PMS5003;51921;51.518;-3.188;2024-01-15T11:56:36;0;0;
60816;PMS5003;51921;51.518;-3.188;2024-01-15T11:59:02;0;0;
60816;PMS5003;51921;51.518;-3.188;2024-01-15T12:01:27;0;0;
60816;PMS5003;51921;51.518;-3.188;2024-01-15T12:03:53;1;0;
60816;PMS5003;51921;51.518;-3.188;2024-01-15T12:06:18;1;1;
60816;PMS5003;51921;51.518;-3.188;2024-01-15T12:08:44;0;0;
60816;PMS5003;51921;51.518;-3.188;2024-01-15T12:11:11;0;0;
60816;PMS5003;51921;51.518;-3.188;2024-01-15T12:13:36;0;0;
60816;PMS5003;51921;51.518;-3.188;2024-01-15T12:16:01;0;0;
60816;PMS5003;51921;51.518;-3.188;2024-01-15T12:18:27;0;0;
60816;PMS5003;51921;51.518;-3.188;2024-01-15T12:20:53;0;0;
60816;PMS5003;51921;51.518;-3.188;2024-01-15T12:23:18;1;1;
60816;PMS5003;51921;51.518;-3.188;2024-01-15T12:25:44;0;0;
60816;PMS5003;51921;51.518;-3.188;2024-01-15T12:28:10;1;0;
60816;PMS5003;51921;51.518;-3.188;2024-01-15T12:30:35;0;0;
60816;PMS5003;51921;51.518;-3.188;2024-01-15T12:33:01;0;0;
60816;PMS5003;51921;51.518;-3.188;2024-01-15T12:35:27;0;0;
60816;PMS5003;51921;51.518;-3.188;2024-01-15T12:37:53;1;0;
60816;PMS5003;51921;51.518;-3.188;2024-01-15T12:40:18;0;0;
60816;PMS5003;51921;51.518;-3.188;2024-01-15T12:42:44;1;0;
60816;PMS5003;51921;51.518;-3.188;2024-01-15T12:45:09;0;0;
60816;PMS5003;51921;51.518;-3.188;2024-01-15T12:47:35;0;0;
60816;PMS5003;51921;51.518;-3.188;2024-01-15T12:50:01;0;0;
60816;PMS5003;51921;51.518;-3.188;2024-01-15T12:52:26;1;1;
60816;PMS5003;51921;51.518;-3.188;2024-01-15T12:54:52;0;0;
60816;PMS5003;51921;51.518;-3.188;2024-01-15T12:57:18;1;1;
60816;PMS5003;51921;51.518;-3.188;2024-01-15T12:59:43;0;0;
60816;PMS5003;51921;51.518;-3.188;2024-01-15T13:02:09;0;0;
60816;PMS5003;51921;51.518;-3.188;2024-01-15T13:04:34;0;0;
60816;PMS5003;51921;51.518;-3.188;2024-01-15T13:07:00;2;1;
60816;PMS5003;51921;51.518;-3.188;2024-01-15T13:09:26;0;0;
60816;PMS5003;51921;51.518;-3.188;2024-01-15T13:11:51;0;0;
60816;PMS5003;51921;51.518;-3.188;2024-01-15T13:14:17;1;1;
60816;PMS5003;51921;51.518;-3.188;2024-01-15T13:16:43;2;1;
60816;PMS5003;51921;51.518;-3.188;2024-01-15T13:19:08;1;0;
60816;PMS5003;51921;51.518;-3.188;2024-01-15T13:21:34;0;0;
60816;PMS5003;51921;51.518;-3.188;2024-01-15T13:24:00;0;0;
60816;PMS5003;51921;51.518;-3.188;2024-01-15T13:26:25;0;0;
60816;PMS5003;51921;51.518;-3.188;2024-01-15T13:28:51;1;1;
60816;PMS5003;51921;51.518;-3.188;2024-01-15T13:31:16;0;0;
60816;PMS5003;51921;51.518;-3.188;2024-01-15T13:33:42;0;0;
60816;PMS5003;51921;51.518;-3.188;2024-01-15T13:36:08;0;0;
60816;PMS5003;51921;51.518;-3.188;2024-01-15T13:38:34;2;0;
60816;PMS5003;51921;51.518;-3.188;2024-01-15T13:40:59;2;1;
60816;PMS5003;51921;51.518;-3.188;2024-01-15T13:43:25;0;0;
60816;PMS5003;51921;51.518;-3.188;2024-01-15T13:45:50;0;0;
60816;PMS5003;51921;51.518;-3.188;2024-01-15T13:48:16;1;1;
60816;PMS5003;51921;51.518;-3.188;2024-01-15T13:50:42;1;0;
60816;PMS5003;51921;51.518;-3.188;2024-01-15T13:53:07;0;0;
60816;PMS5003;51921;51.518;-3.188;2024-01-15T13:55:33;0;0;
60816;PMS5003;51921;51.518;-3.188;2024-01-15T13:57:58;1;0;
60816;PMS5003;51921;51.518;-3.188;2024-01-15T14:00:24;1;1;
60816;PMS5003;51921;51.518;-3.188;2024-01-15T14:02:50;0;0;
60816;PMS5003;51921;51.518;-3.188;2024-01-15T14:05:15;1;0;
60816;PMS5003;51921;51.518;-3.188;2024-01-15T14:07:41;0;0;
60816;PMS5003;51921;51.518;-3.188;2024-01-15T14:10:07;0;0;
60816;PMS5003;51921;51.518;-3.188;2024-01-15T14:12:32;0;0;
60816;PMS5003;51921;51.518;-3.188;2024-01-15T14:14:58;1;1;
60816;PMS5003;51921;51.518;-3.188;2024-01-15T14:17:23;1;0;
60816;PMS5003;51921;51.518;-3.188;2024-01-15T14:19:50;1;0;
60816;PMS5003;51921;51.518;-3.188;2024-01-15T14:22:15;1;1;
60816;PMS5003;51921;51.518;-3.188;2024-01-15T14:24:40;0;0;
60816;PMS5003;51921;51.518;-3.188;2024-01-15T14:27:06;1;1;
60816;PMS5003;51921;51.518;-3.188;2024-01-15T14:29:32;1;0;
60816;PMS5003;51921;51.518;-3.188;2024-01-15T14:31:57;1;1;
60816;PMS5003;51921;51.518;-3.188;2024-01-15T14:34:23;1;1;
60816;PMS5003;51921;51.518;-3.188;2024-01-15T14:36:49;1;1;
60816;PMS5003;51921;51.518;-3.188;2024-01-15T14:39:14;0;0;
60816;PMS5003;51921;51.518;-3.188;2024-01-15T14:41:40;0;0;
60816;PMS5003;51921;51.518;-3.188;2024-01-15T14:44:06;1;0;
60816;PMS5003;51921;51.518;-3.188;2024-01-15T14:46:32;0;0;
60816;PMS5003;51921;51.518;-3.188;2024-01-15T14:48:57;1;1;
60816;PMS5003;51921;51.518;-3.188;2024-01-15T14:51:22;1;1;
60816;PMS5003;51921;51.518;-3.188;2024-01-15T14:53:48;1;0;
60816;PMS5003;51921;51.518;-3.188;2024-01-15T14:56:14;1;1;
60816;PMS5003;51921;51.518;-3.188;2024-01-15T14:58:39;2;0;
60816;PMS5003;51921;51.518;-3.188;2024-01-15T15:01:05;0;0;
60816;PMS5003;51921;51.518;-3.188;2024-01-15T15:03:31;1;1;
60816;PMS5003;51921;51.518;-3.188;2024-01-15T15:05:56;0;0;
60816;PMS5003;51921;51.518;-3.188;2024-01-15T15:08:22;0;0;
60816;PMS5003;51921;51.518;-3.188;2024-01-15T15:10:48;3;2;
60816;PMS5003;51921;51.518;-3.188;2024-01-15T15:13:13;2;2;
60816;PMS5003;51921;51.518;-3.188;2024-01-15T15:15:39;4;2;
60816;PMS5003;51921;51.518;-3.188;2024-01-15T15:18:04;0;0;
60816;PMS5003;51921;51.518;-3.188;2024-01-15T15:20:30;1;1;
60816;PMS5003;51921;51.518;-3.188;2024-01-15T15:22:56;1;1;
60816;PMS5003;51921;51.518;-3.188;2024-01-15T15:25:21;0;0;
60816;PMS5003;51921;51.518;-3.188;2024-01-15T15:27:47;1;1;
60816;PMS5003;51921;51.518;-3.188;2024-01-15T15:30:13;3;2;
60816;PMS5003;51921;51.518;-3.188;2024-01-15T15:32:38;1;1;
60816;PMS5003;51921;51.518;-3.188;2024-01-15T15:35:04;1;1;
60816;PMS5003;51921;51.518;-3.188;2024-01-15T15:37:29;2;1;
60816;PMS5003;51921;51.518;-3.188;2024-01-15T15:39:55;1;1;
60816;PMS5003;51921;51.518;-3.188;2024-01-15T15:42:21;1;1;
60816;PMS5003;51921;51.518;-3.188;2024-01-15T15:44:46;0;0;
60816;PMS5003;51921;51.518;-3.188;2024-01-15T15:47:12;3;2;
60816;PMS5003;51921;51.518;-3.188;2024-01-15T15:49:38;1;0;
60816;PMS5003;51921;51.518;-3.188;2024-01-15T15:52:03;2;2;
60816;PMS5003;51921;51.518;-3.188;2024-01-15T15:54:29;4;3;
60816;PMS5003;51921;51.518;-3.188;2024-01-15T15:56:54;6;3;
60816;PMS5003;51921;51.518;-3.188;2024-01-15T15:59:20;6;6;
60816;PMS5003;51921;51.518;-3.188;2024-01-15T16:01:47;6;6;
60816;PMS5003;51921;51.518;-3.188;2024-01-15T16:04:12;3;3;
60816;PMS5003;51921;51.518;-3.188;2024-01-15T16:06:37;2;2;
60816;PMS5003;51921;51.518;-3.188;2024-01-15T16:09:03;3;2;
60816;PMS5003;51921;51.518;-3.188;2024-01-15T16:11:28;5;5;
60816;PMS5003;51921;51.518;-3.188;2024-01-15T16:13:54;3;3;
60816;PMS5003;51921;51.518;-3.188;2024-01-15T16:16:20;4;4;
60816;PMS5003;51921;51.518;-3.188;2024-01-15T16:18:45;5;5;
60816;PMS5003;51921;51.518;-3.188;2024-01-15T16:21:11;8;6;
60816;PMS5003;51921;51.518;-3.188;2024-01-15T16:23:36;4;4;
60816;PMS5003;51921;51.518;-3.188;2024-01-15T16:26:02;4;3;
60816;PMS5003;51921;51.518;-3.188;2024-01-15T16:28:27;5;5;
60816;PMS5003;51921;51.518;-3.188;2024-01-15T16:30:53;6;6;
60816;PMS5003;51921;51.518;-3.188;2024-01-15T16:33:19;6;6;